Time;durP1;ratioP1;P1;durP2;ratioP2;P2;SDS_P1;SDS_P2;PMS_P1;PMS_P2;Temp;Humidity;BMP_temperature;BMP_pressure;BME280_temperature;BME280_humidity;BME280_pressure;Samples;Min_cycle;Max_cycle;Signal;HPM_P1;HPM_P2
2021/05/20 00:02:08;;;;;;;4.82;1.70;;;;;;;8.85;80.66;99147.25;5011519;28;20034;-67
2021/05/20 00:04:34;;;;;;;3.20;1.38;;;;;;;8.69;81.11;99128.53;4994405;28;20018;-67
2021/05/20 00:06:59;;;;;;;4.00;1.40;;;;;;;8.73;81.33;99144.19;5012261;28;20033;-68
2021/05/20 00:09:24;;;;;;;2.13;1.00;;;;;;;8.75;80.73;99146.69;5011867;28;20030;-68
2021/05/20 00:11:50;;;;;;;2.90;1.08;;;;;;;8.64;80.15;99134.47;5011015;28;20025;-67
2021/05/20 00:14:15;;;;;;;2.78;1.27;;;;;;;8.65;80.27;99146.13;5011808;28;20038;-68
2021/05/20 00:16:40;;;;;;;4.20;1.35;;;;;;;8.74;80.63;99142.31;5012534;28;20053;-67
2021/05/20 00:19:07;;;;;;;3.70;1.45;;;;;;;8.61;81.05;99147.50;5010809;28;20034;-68
2021/05/20 00:21:32;;;;;;;3.50;1.38;;;;;;;8.43;81.75;99137.84;5007052;28;20441;-68
2021/05/20 00:23:57;;;;;;;3.47;1.30;;;;;;;8.30;82.30;99154.59;5011616;28;20105;-68
2021/05/20 00:26:23;;;;;;;4.43;1.50;;;;;;;8.27;82.70;99159.53;5013102;28;20157;-68
2021/05/20 00:28:49;;;;;;;3.22;1.27;;;;;;;8.18;83.37;99141.75;5012699;28;20032;-68
2021/05/20 00:31:14;;;;;;;2.78;1.30;;;;;;;8.25;82.87;99162.44;5013590;28;20030;-68
2021/05/20 00:33:39;;;;;;;3.72;1.38;;;;;;;8.09;83.47;99152.56;5020803;28;20091;-68
2021/05/20 00:36:06;;;;;;;5.35;1.33;;;;;;;8.19;83.74;99167.69;5027434;28;20116;-68
2021/05/20 00:38:31;;;;;;;2.40;1.50;;;;;;;8.03;84.16;99147.91;5011519;28;20030;-68
2021/05/20 00:41:01;;;;;;;3.55;1.50;;;;;;;8.20;84.41;99166.66;5010588;28;20026;-67
2021/05/20 00:43:26;;;;;;;;;;;;;;;8.24;84.29;99170.69;5012593;28;20500;-68
2021/05/20 00:45:51;;;;;;;5.53;1.60;;;;;;;8.25;84.54;99164.25;5011658;28;19960;-68
2021/05/20 00:48:17;;;;;;;2.78;1.30;;;;;;;8.38;83.56;99161.78;4994222;28;20053;-68
2021/05/20 00:50:42;;;;;;;2.65;1.40;;;;;;;8.38;83.04;99174.44;5005184;28;20030;-68
2021/05/20 00:53:08;;;;;;;2.67;1.70;;;;;;;8.43;82.56;99169.38;4996505;28;20022;-68
2021/05/20 00:55:35;;;;;;;6.10;1.33;;;;;;;8.41;82.39;99160.63;5013004;28;20030;-67
2021/05/20 00:58:01;;;;;;;2.85;1.20;;;;;;;8.42;82.64;99144.28;5019850;28;20033;-68
2021/05/20 01:00:26;;;;;;;3.38;1.40;;;;;;;8.61;82.49;99169.06;5022348;28;20056;-68
2021/05/20 01:02:52;;;;;;;2.40;1.23;;;;;;;8.61;82.17;99156.41;5019919;28;20072;-67
2021/05/20 01:05:18;;;;;;;2.03;1.30;;;;;;;8.60;81.29;99167.41;5022690;28;20022;-67
2021/05/20 01:07:43;;;;;;;3.55;1.45;;;;;;;8.78;80.47;99174.16;5022472;28;20040;-68
2021/05/20 01:10:10;;;;;;;2.33;1.38;;;;;;;8.73;80.36;99171.16;5021795;28;20100;-67
2021/05/20 01:12:35;;;;;;;2.63;1.55;;;;;;;8.75;80.19;99169.13;5022187;28;20109;-69
2021/05/20 01:15:01;;;;;;;2.15;1.50;;;;;;;8.75;80.27;99169.13;5022358;28;20338;-68
2021/05/20 01:17:28;;;;;;;2.75;1.45;;;;;;;8.70;80.66;99154.50;5024620;28;20026;-67
2021/05/20 01:19:53;;;;;;;1.63;1.10;;;;;;;8.83;80.06;99172.75;5024918;28;20053;-68
2021/05/20 01:22:19;;;;;;;1.70;1.25;;;;;;;8.81;80.27;99177.50;5021926;28;20480;-69
2021/05/20 01:24:46;;;;;;;2.33;1.15;;;;;;;8.73;80.38;99171.16;5023632;28;20554;-68
2021/05/20 01:27:13;;;;;;;1.50;1.10;;;;;;;8.71;80.48;99186.69;5022669;28;20030;-68
2021/05/20 01:29:41;;;;;;;2.05;1.20;;;;;;;8.68;80.51;99178.97;5022158;28;20060;-66
2021/05/20 01:32:07;;;;;;;2.28;1.55;;;;;;;8.74;80.80;99172.81;5020855;28;20149;-66
2021/05/20 01:34:34;;;;;;;3.80;1.50;;;;;;;8.56;81.14;99170.44;5016927;28;20030;-66
2021/05/20 01:37:08;;;;;;;2.30;1.20;;;;;;;8.54;81.33;99177.03;5015208;28;20033;-67
2021/05/20 01:39:33;;;;;;;3.67;1.30;;;;;;;8.31;82.07;99159.00;5014491;28;20032;-67
2021/05/20 01:41:59;;;;;;;3.75;1.00;;;;;;;8.24;82.73;99174.22;5014703;28;20041;-67
2021/05/20 01:44:24;;;;;;;4.75;1.15;;;;;;;8.24;83.91;99186.84;5013690;28;20042;-67
2021/05/20 01:46:50;;;;;;;2.60;1.40;;;;;;;8.29;83.10;99185.28;5014824;28;20087;-69
2021/05/20 01:49:15;;;;;;;1.70;0.90;;;;;;;8.16;82.83;99173.44;5014973;28;20029;-67
2021/05/20 01:51:41;;;;;;;2.05;1.05;;;;;;;8.14;81.86;99184.38;5014175;28;20107;-66
2021/05/20 01:54:07;;;;;;;2.22;1.15;;;;;;;8.03;83.18;99185.63;5014931;28;20522;-66
2021/05/20 01:56:36;;;;;;;3.42;1.00;;;;;;;8.01;83.58;99182.25;5028521;28;20029;-66
2021/05/20 01:59:05;;;;;;;0.93;0.85;;;;;;;7.87;83.21;99173.09;5013753;28;20134;-66
2021/05/20 02:01:31;;;;;;;2.05;1.08;;;;;;;7.99;82.27;99187.03;5013879;28;20033;-67
2021/05/20 02:03:57;;;;;;;2.33;0.70;;;;;;;8.17;81.21;99188.56;5012743;28;20030;-67
2021/05/20 02:06:22;;;;;;;3.30;0.80;;;;;;;8.31;80.47;99190.50;5014300;28;20022;-67
2021/05/20 02:08:47;;;;;;;0.88;0.60;;;;;;;8.36;79.71;99188.13;5014262;28;20491;-67
2021/05/20 02:11:13;;;;;;;1.27;0.70;;;;;;;8.41;79.82;99187.59;5012903;28;20049;-66
2021/05/20 02:13:38;;;;;;;1.33;0.70;;;;;;;8.39;79.80;99195.00;5003019;28;20040;-67
2021/05/20 02:16:05;;;;;;;2.65;0.80;;;;;;;8.40;80.52;99197.53;5014873;28;20026;-67
2021/05/20 02:18:31;;;;;;;1.42;0.80;;;;;;;8.53;79.49;99197.78;4996471;28;20543;-68
2021/05/20 02:20:56;;;;;;;1.45;0.50;;;;;;;8.52;79.36;99192.59;4992779;28;20117;-68
2021/05/20 02:23:21;;;;;;;1.23;0.60;;;;;;;8.54;78.78;99188.69;5007806;28;20018;-67
2021/05/20 02:25:47;;;;;;;1.05;0.52;;;;;;;8.47;79.12;99198.50;5012271;28;20029;-67
2021/05/20 02:28:12;;;;;;;3.70;0.70;;;;;;;8.38;79.54;99191.47;5013417;28;20456;-67
2021/05/20 02:30:37;;;;;;;2.60;0.90;;;;;;;8.42;79.74;99183.91;5012925;28;20021;-67
2021/05/20 02:33:03;;;;;;;4.80;0.82;;;;;;;8.31;80.20;99177.88;5015311;28;20026;-68
2021/05/20 02:35:28;;;;;;;1.25;0.70;;;;;;;8.52;79.26;99198.81;4994192;28;20069;-68
2021/05/20 02:37:54;;;;;;;0.85;0.70;;;;;;;8.39;79.70;99190.50;5006535;28;20392;-67
2021/05/20 02:40:20;;;;;;;2.70;0.80;;;;;;;8.60;79.43;99191.69;5013222;28;20022;-67
2021/05/20 02:42:46;;;;;;;2.88;0.60;;;;;;;8.61;78.77;99207.66;5013306;28;20026;-68
2021/05/20 02:45:14;;;;;;;2.33;1.13;;;;;;;8.53;79.32;99195.09;5013036;28;20658;-68
2021/05/20 02:47:43;;;;;;;1.02;0.70;;;;;;;8.56;78.75;99191.19;5013416;28;20037;-68
2021/05/20 02:50:09;;;;;;;1.83;0.82;;;;;;;8.55;79.04;99208.41;5013624;28;20121;-67
2021/05/20 02:52:34;;;;;;;1.27;0.80;;;;;;;8.55;78.91;99211.09;4997134;28;20058;-67
2021/05/20 02:55:03;;;;;;;1.15;0.70;;;;;;;8.52;78.98;99201.50;5011418;28;20034;-68
2021/05/20 02:57:29;;;;;;;2.90;1.10;;;;;;;8.48;79.24;99196.66;5013403;28;20030;-68
2021/05/20 02:59:55;;;;;;;2.25;0.93;;;;;;;8.52;79.31;99212.28;4996913;28;20460;-67
2021/05/20 03:02:21;;;;;;;1.20;0.80;;;;;;;8.56;79.24;99213.59;5007443;28;20026;-67
2021/05/20 03:04:46;;;;;;;2.60;1.05;;;;;;;8.53;79.53;99211.25;5013324;28;20411;-68
2021/05/20 03:07:11;;;;;;;1.95;0.93;;;;;;;8.62;79.24;99211.19;5013431;28;20104;-68
2021/05/20 03:09:39;;;;;;;2.65;1.17;;;;;;;8.53;79.59;99208.56;5011664;28;20022;-68
2021/05/20 03:12:04;;;;;;;0.98;0.60;;;;;;;8.60;79.39;99206.00;4995106;28;20021;-68
2021/05/20 03:14:30;;;;;;;3.30;0.82;;;;;;;8.44;79.85;99198.03;4994300;28;20022;-68
2021/05/20 03:16:55;;;;;;;2.83;0.70;;;;;;;8.53;79.50;99205.03;5011381;28;20108;-65
2021/05/20 03:19:21;;;;;;;1.83;0.80;;;;;;;8.49;80.12;99209.97;5012365;28;20530;-67
2021/05/20 03:21:47;;;;;;;7.43;0.93;;;;;;;8.55;79.24;99206.53;5011364;28;20088;-68
2021/05/20 03:24:12;;;;;;;2.25;0.90;;;;;;;8.54;79.67;99214.78;4996013;28;20018;-66
2021/05/20 03:26:38;;;;;;;1.85;0.93;;;;;;;8.47;79.12;99216.56;5012124;28;20036;-67
2021/05/20 03:29:04;;;;;;;2.38;0.80;;;;;;;8.42;78.76;99200.91;5012246;28;20033;-67
2021/05/20 03:31:30;;;;;;;3.58;0.85;;;;;;;8.50;78.36;99208.94;5010780;28;20038;-67
2021/05/20 03:33:55;;;;;;;2.65;0.80;;;;;;;8.27;78.89;99186.50;5012625;28;20088;-68
2021/05/20 03:36:20;;;;;;;0.77;0.70;;;;;;;8.42;79.59;99217.09;5013043;28;20483;-68
2021/05/20 03:38:46;;;;;;;1.02;0.70;;;;;;;8.39;78.97;99212.06;5001712;28;20039;-67
2021/05/20 03:41:11;;;;;;;1.98;0.77;;;;;;;8.23;79.28;99186.03;5021856;28;20034;-69
2021/05/20 03:43:37;;;;;;;1.73;1.00;;;;;;;8.38;79.31;99215.72;5009160;28;20018;-72
2021/05/20 03:46:03;;;;;;;3.55;0.98;;;;;;;8.37;79.41;99227.53;4998047;28;20033;-74
2021/05/20 03:48:29;;;;;;;1.60;0.90;;;;;;;8.30;78.77;99203.13;5008304;28;20022;-72
2021/05/20 03:50:59;;;;;;;4.43;0.75;;;;;;;8.41;78.98;99226.19;5012602;28;20048;-72
2021/05/20 03:53:32;;;;;;;4.63;0.90;;;;;;;8.40;79.52;99229.91;5012800;28;20026;-74
2021/05/20 03:55:58;;;;;;;2.30;0.75;;;;;;;8.55;79.22;99222.72;5011442;28;20395;-71
2021/05/20 03:58:26;;;;;;;3.17;0.68;;;;;;;8.35;79.75;99211.53;5010498;28;20025;-71
2021/05/20 04:00:51;;;;;;;1.23;0.70;;;;;;;8.43;79.29;99228.69;5013284;28;20037;-75
2021/05/20 04:03:26;;;;;;;1.23;0.82;;;;;;;8.42;79.69;99221.66;4995384;28;20388;-76
2021/05/20 04:05:53;;;;;;;4.35;1.05;;;;;;;8.49;79.44;99228.84;4994870;28;20069;-79
2021/05/20 04:08:19;;;;;;;1.73;0.80;;;;;;;8.50;79.73;99235.91;5019484;28;20145;-84
2021/05/20 04:10:44;;;;;;;0.75;0.75;;;;;;;8.44;79.22;99223.16;5013661;28;20050;-77
2021/05/20 04:13:11;;;;;;;1.73;0.63;;;;;;;8.52;78.88;99228.47;5017944;28;20026;-81
2021/05/20 04:15:37;;;;;;;3.08;1.48;;;;;;;8.60;79.23;99241.06;4996088;28;20029;-76
2021/05/20 04:18:02;;;;;;;1.02;0.77;;;;;;;8.62;79.15;99233.63;5015764;28;20492;-82
2021/05/20 04:20:27;;;;;;;1.33;0.70;;;;;;;8.64;79.32;99220.78;4997713;28;20036;-78
2021/05/20 04:22:53;;;;;;;3.80;1.40;;;;;;;8.71;78.98;99242.50;4997995;28;20026;-77
2021/05/20 04:25:18;;;;;;;5.05;0.90;;;;;;;8.42;80.10;99211.69;4996128;28;20026;-74
2021/05/20 04:27:44;;;;;;;3.60;0.85;;;;;;;8.78;79.63;99251.56;5011711;28;20120;-68
2021/05/20 04:30:09;;;;;;;3.00;1.10;;;;;;;8.74;79.84;99242.13;5010751;28;20030;-68
2021/05/20 04:32:35;;;;;;;4.20;1.10;;;;;;;8.76;80.11;99253.59;5014348;28;20639;-68
2021/05/20 04:35:00;;;;;;;2.00;1.17;;;;;;;8.78;80.52;99251.56;5015875;28;20033;-81
2021/05/20 04:37:25;;;;;;;1.25;1.00;;;;;;;8.79;80.12;99253.22;5006052;28;20427;-78
2021/05/20 04:39:51;;;;;;;2.08;1.25;;;;;;;8.85;80.38;99246.25;5012965;28;20486;-80
2021/05/20 04:42:16;;;;;;;2.80;1.27;;;;;;;8.69;80.83;99239.97;4980458;28;20030;-79
2021/05/20 04:44:43;;;;;;;3.55;1.30;;;;;;;8.85;80.27;99238.16;4998846;28;20069;-80
2021/05/20 04:47:11;;;;;;;2.45;1.10;;;;;;;9.01;80.35;99262.31;5016738;28;20109;-78
2021/05/20 04:49:37;;;;;;;2.20;1.50;;;;;;;8.96;80.07;99227.78;5025763;28;20108;-80
2021/05/20 04:52:02;;;;;;;2.50;1.48;;;;;;;9.04;80.24;99255.69;4999126;28;20120;-79
2021/05/20 04:54:27;;;;;;;4.72;1.70;;;;;;;8.83;80.18;99240.19;4998094;28;20400;-77
2021/05/20 04:56:52;;;;;;;1.75;1.30;;;;;;;8.94;80.84;99247.88;4995941;28;20029;-77
2021/05/20 04:59:19;;;;;;;3.75;1.77;;;;;;;9.00;80.70;99255.25;4999052;28;20060;-79
2021/05/20 05:01:44;;;;;;;2.40;1.60;;;;;;;9.10;80.60;99266.63;5000349;28;20027;-82
2021/05/20 05:04:09;;;;;;;4.28;1.90;;;;;;;8.91;80.43;99235.59;5006653;28;20034;-75
2021/05/20 05:06:35;;;;;;;2.55;1.75;;;;;;;9.11;80.90;99289.06;5015756;28;20439;-77
2021/05/20 05:09:01;;;;;;;5.97;1.80;;;;;;;9.25;80.38;99271.19;5011872;28;20117;-76
2021/05/20 05:11:26;;;;;;;3.75;1.60;;;;;;;9.18;80.48;99250.34;4994513;28;20461;-78
2021/05/20 05:13:51;;;;;;;2.22;1.33;;;;;;;9.56;79.77;99279.16;4994769;28;20029;-67
2021/05/20 05:16:17;;;;;;;2.63;1.52;;;;;;;9.51;79.68;99271.63;5011845;28;20025;-71
2021/05/20 05:18:42;;;;;;;2.70;1.50;;;;;;;9.59;79.70;99295.84;5013381;28;20025;-67
2021/05/20 05:21:07;;;;;;;2.75;1.80;;;;;;;9.58;79.25;99283.34;5010016;28;20034;-74
2021/05/20 05:23:33;;;;;;;3.40;1.58;;;;;;;9.60;79.07;99280.47;4993246;28;20399;-73
2021/05/20 05:25:58;;;;;;;2.67;1.45;;;;;;;9.76;79.07;99299.19;4993533;28;20392;-75
2021/05/20 05:28:24;;;;;;;4.65;2.25;;;;;;;9.91;77.89;99282.16;4994199;28;20357;-75
2021/05/20 05:30:49;;;;;;;2.33;1.70;;;;;;;9.98;78.08;99283.94;5011287;28;20038;-78
2021/05/20 05:33:14;;;;;;;4.25;1.80;;;;;;;10.01;78.00;99293.53;5015325;28;20055;-79
2021/05/20 05:35:40;;;;;;;2.47;1.35;;;;;;;10.00;78.30;99299.94;5001274;28;20049;-75
2021/05/20 05:38:05;;;;;;;4.65;1.60;;;;;;;10.01;78.15;99298.94;4995487;28;20630;-72
2021/05/20 05:40:30;;;;;;;4.10;1.67;;;;;;;9.81;78.77;99304.91;5018411;28;20030;-75
2021/05/20 05:42:56;;;;;;;2.22;1.52;;;;;;;9.86;78.62;99294.38;4998507;28;20115;-71
2021/05/20 05:45:21;;;;;;;2.72;1.70;;;;;;;10.02;78.13;99287.94;5016400;28;20065;-78
2021/05/20 05:47:47;;;;;;;3.90;1.77;;;;;;;10.10;77.88;99305.91;5036881;28;20033;-79
2021/05/20 05:50:14;;;;;;;5.55;1.70;;;;;;;9.86;79.10;99315.16;5035730;28;20044;-80
2021/05/20 05:52:40;;;;;;;6.05;2.30;;;;;;;9.82;79.28;99313.84;5022562;28;20029;-70
2021/05/20 05:55:06;;;;;;;2.92;1.67;;;;;;;10.10;78.42;99314.03;5012240;28;20025;-80
2021/05/20 05:57:32;;;;;;;2.33;1.90;;;;;;;9.80;78.79;99318.59;5001626;28;20152;-78
2021/05/20 05:59:58;;;;;;;6.05;2.00;;;;;;;10.06;78.81;99318.13;5020081;28;20119;-80
2021/05/20 06:02:24;;;;;;;5.43;2.17;;;;;;;10.05;77.59;99324.56;5005883;28;20022;-78
2021/05/20 06:04:50;;;;;;;1.90;1.50;;;;;;;10.12;77.56;99322.78;5014980;28;20488;-68
2021/05/20 06:07:16;;;;;;;2.90;2.03;;;;;;;10.45;76.71;99306.16;5015122;28;20361;-80
2021/05/20 06:09:42;;;;;;;2.80;1.90;;;;;;;10.47;76.27;99320.34;5000476;28;20037;-78
2021/05/20 06:12:07;;;;;;;2.17;1.77;;;;;;;10.43;75.61;99313.66;5013505;28;20033;-79
2021/05/20 06:14:36;;;;;;;5.22;1.63;;;;;;;11.00;74.15;99320.91;5015877;28;20032;-68
2021/05/20 06:17:01;;;;;;;4.30;1.77;;;;;;;11.43;71.43;99314.63;5013403;28;20029;-69
2021/05/20 06:19:27;;;;;;;3.17;1.52;;;;;;;11.55;71.07;99311.19;5008540;28;20749;-69
2021/05/20 06:21:52;;;;;;;2.38;1.38;;;;;;;11.72;70.46;99291.91;5021241;28;20018;-77
2021/05/20 06:24:17;;;;;;;2.40;1.83;;;;;;;11.81;69.79;99305.09;5014564;28;20022;-75
2021/05/20 06:26:42;;;;;;;4.82;1.52;;;;;;;11.82;69.98;99306.78;4997166;28;20087;-76
2021/05/20 06:29:08;;;;;;;3.03;1.55;;;;;;;11.54;70.14;99295.13;5015171;28;20157;-79
2021/05/20 06:31:33;;;;;;;2.72;1.52;;;;;;;11.59;70.15;99300.78;4999202;28;20026;-82
2021/05/20 06:33:58;;;;;;;1.58;1.20;;;;;;;11.78;71.12;99315.50;4999600;28;20018;-75
2021/05/20 06:36:25;;;;;;;3.28;1.30;;;;;;;11.62;70.11;99312.06;5012465;28;20029;-80
2021/05/20 06:38:52;;;;;;;1.48;1.30;;;;;;;12.03;69.50;99332.19;4996899;28;20108;-68
2021/05/20 06:41:17;;;;;;;4.40;1.20;;;;;;;12.21;68.88;99326.22;5012908;28;20022;-71
2021/05/20 06:43:42;;;;;;;2.67;1.40;;;;;;;12.20;68.81;99324.53;5018035;28;20037;-82
2021/05/20 06:46:08;;;;;;;1.10;1.00;;;;;;;12.34;68.99;99339.84;5003410;28;20116;-82
2021/05/20 06:48:34;;;;;;;3.80;1.30;;;;;;;11.90;69.87;99343.78;5018365;28;20049;-77
2021/05/20 06:51:00;;;;;;;1.67;1.20;;;;;;;12.07;69.17;99331.56;5009179;28;20117;-72
2021/05/20 06:53:26;;;;;;;1.20;0.95;;;;;;;11.76;70.22;99323.84;5002739;28;20500;-76
2021/05/20 06:55:55;;;;;;;3.28;1.42;;;;;;;11.88;70.93;99340.41;5014321;28;20031;-68
2021/05/20 07:01:05;;;;;;;3.03;1.33;;;;;;;11.45;73.30;99351.34;5012464;28;20100;-71
2021/05/20 07:03:30;;;;;;;4.60;1.38;;;;;;;11.07;72.41;99343.47;5011942;28;20022;-71
2021/05/20 07:05:55;;;;;;;2.65;1.50;;;;;;;11.02;72.33;99351.34;5013307;28;20133;-70
2021/05/20 07:08:21;;;;;;;1.88;1.27;;;;;;;11.56;71.49;99353.50;5012495;28;20025;-70
2021/05/20 07:10:46;;;;;;;2.10;1.38;;;;;;;11.52;71.13;99357.63;5008698;28;20040;-71
2021/05/20 07:13:12;;;;;;;2.17;1.40;;;;;;;11.84;70.58;99347.22;4989779;28;20029;-70
2021/05/20 07:15:37;;;;;;;2.45;1.55;;;;;;;12.04;69.99;99347.41;5011124;28;20462;-78
2021/05/20 07:18:02;;;;;;;2.38;1.60;;;;;;;12.01;69.23;99340.50;4998347;28;20056;-71
2021/05/20 07:20:28;;;;;;;2.92;1.80;;;;;;;12.49;68.97;99343.22;5013785;28;20471;-75
2021/05/20 07:22:53;;;;;;;2.72;1.73;;;;;;;12.77;68.09;99350.44;4996774;28;20116;-77
2021/05/20 07:25:18;;;;;;;2.75;1.67;;;;;;;12.77;67.04;99336.88;4995130;28;20037;-74
2021/05/20 07:27:45;;;;;;;3.47;1.73;;;;;;;12.87;66.47;99334.59;4995375;28;20010;-75
2021/05/20 07:30:11;;;;;;;2.33;1.52;;;;;;;13.02;65.48;99336.28;4995906;28;20018;-77
2021/05/20 07:32:36;;;;;;;3.25;1.42;;;;;;;12.74;66.51;99342.72;5011846;28;20407;-76
2021/05/20 07:35:02;;;;;;;4.07;1.92;;;;;;;12.40;66.92;99339.03;4996172;28;20033;-75
2021/05/20 07:37:27;;;;;;;3.28;1.67;;;;;;;12.76;66.80;99340.63;5014236;28;20034;-75
2021/05/20 07:39:52;;;;;;;2.55;1.30;;;;;;;13.22;66.01;99330.91;4997213;28;20022;-75
2021/05/20 07:42:18;;;;;;;1.60;1.20;;;;;;;13.76;64.71;99333.44;5012221;28;20032;-75
2021/05/20 07:44:44;;;;;;;2.00;1.40;;;;;;;14.12;63.66;99342.16;4995111;28;20030;-75
2021/05/20 07:47:09;;;;;;;1.70;1.20;;;;;;;13.79;63.26;99343.88;4991037;28;20038;-73
2021/05/20 07:49:37;;;;;;;1.50;1.00;;;;;;;13.63;63.79;99333.47;4994223;28;20031;-75
2021/05/20 07:52:04;;;;;;;1.55;1.00;;;;;;;13.91;64.66;99345.97;5012105;28;20029;-74
2021/05/20 07:54:32;;;;;;;1.13;1.02;;;;;;;14.10;62.74;99342.38;5013308;28;20033;-77
2021/05/20 07:56:57;;;;;;;4.05;1.35;;;;;;;14.09;62.48;99361.63;5025500;28;20029;-76
2021/05/20 07:59:23;;;;;;;2.42;1.20;;;;;;;14.54;62.27;99348.13;5012278;28;20105;-78
2021/05/20 08:01:55;;;;;;;2.10;1.25;;;;;;;14.21;62.42;99352.59;5015327;28;20110;-79
2021/05/20 08:04:24;;;;;;;1.23;0.95;;;;;;;14.46;61.72;99355.47;5014040;28;20030;-79
2021/05/20 08:09:32;;;;;;;1.10;1.00;;;;;;;13.85;61.88;99325.06;5021237;28;20030;-75
2021/05/20 08:11:57;;;;;;;2.42;1.00;;;;;;;13.61;62.79;99342.88;5011344;28;20510;-73
2021/05/20 08:14:22;;;;;;;4.50;1.00;;;;;;;13.63;62.79;99357.09;5010361;28;20029;-73
2021/05/20 08:16:48;;;;;;;1.95;1.15;;;;;;;13.59;63.20;99354.78;5000725;28;20399;-80
2021/05/20 08:19:13;;;;;;;3.75;1.00;;;;;;;13.78;63.20;99357.69;5019334;28;20072;-77
2021/05/20 08:21:40;;;;;;;1.63;0.90;;;;;;;13.82;63.14;99350.78;4994165;28;20033;-76
2021/05/20 08:24:07;;;;;;;1.15;0.65;;;;;;;13.91;63.17;99356.84;4994847;28;20177;-72
2021/05/20 08:26:32;;;;;;;2.08;0.80;;;;;;;13.81;63.04;99344.53;5011029;28;20379;-72
2021/05/20 08:28:58;;;;;;;1.83;0.77;;;;;;;14.17;62.81;99339.63;5010804;28;20026;-71
2021/05/20 08:31:24;;;;;;;2.90;1.10;;;;;;;14.02;62.70;99335.28;5012124;28;20029;-72
2021/05/20 08:33:49;;;;;;;1.58;1.15;;;;;;;13.66;62.69;99348.50;4992890;28;20392;-70
2021/05/20 08:36:14;;;;;;;1.30;0.75;;;;;;;13.63;63.06;99351.66;5006247;28;20025;-70
2021/05/20 08:38:40;;;;;;;3.85;1.00;;;;;;;13.91;62.54;99345.97;5008967;28;20029;-70
2021/05/20 08:41:05;;;;;;;1.70;0.88;;;;;;;14.29;62.27;99337.94;5008365;28;20022;-70
2021/05/20 08:43:31;;;;;;;2.40;1.00;;;;;;;15.25;59.63;99341.66;5011914;28;20032;-73
2021/05/20 08:45:57;;;;;;;2.10;0.90;;;;;;;15.27;58.52;99342.25;4994253;28;20088;-68
2021/05/20 08:48:22;;;;;;;1.17;0.70;;;;;;;14.91;59.80;99351.94;4991457;28;20025;-73
2021/05/20 08:50:48;;;;;;;1.08;0.73;;;;;;;17.60;52.54;99340.41;5008603;28;20018;-73
2021/05/20 08:53:13;;;;;;;0.50;0.50;;;;;;;21.11;45.98;99324.09;5009899;28;20041;-76
2021/05/20 08:55:40;;;;;;;2.72;1.00;;;;;;;19.65;46.59;99340.00;4991893;28;20037;-65
2021/05/20 08:58:08;;;;;;;1.20;0.75;;;;;;;18.74;49.03;99336.41;5010250;28;20167;-65
2021/05/20 09:00:35;;;;;;;2.47;0.68;;;;;;;20.02;46.73;99330.44;5010864;28;20054;-65
2021/05/20 09:03:14;;;;;;;0.82;0.60;;;;;;;20.21;43.70;99329.06;5009607;28;20394;-63
2021/05/20 09:05:40;;;;;;;1.17;0.68;;;;;;;20.46;44.61;99335.97;5011206;28;20057;-63
2021/05/20 09:08:11;;;;;;;0.70;0.50;;;;;;;21.91;43.98;99331.72;5012312;28;20040;-74
2021/05/20 09:10:37;;;;;;;1.63;0.50;;;;;;;21.01;44.24;99321.25;5013056;28;20109;-66
2021/05/20 09:13:04;;;;;;;1.05;0.63;;;;;;;19.40;47.39;99332.16;5015658;28;20026;-66
2021/05/20 09:15:31;;;;;;;3.08;0.80;;;;;;;17.74;50.92;99339.13;5015592;28;20077;-67
2021/05/20 09:18:11;;;;;;;1.33;0.60;;;;;;;16.80;52.18;99338.88;5014104;28;20494;-67
2021/05/20 09:20:47;;;;;;;0.57;0.55;;;;;;;16.91;53.61;99339.16;5018444;28;20025;-67
2021/05/20 09:23:18;;;;;;;0.68;0.40;;;;;;;17.12;52.56;99344.09;5035458;28;20479;-67
2021/05/20 09:25:46;;;;;;;0.55;0.40;;;;;;;16.90;52.71;99345.69;5030573;28;20036;-67
2021/05/20 09:28:14;;;;;;;1.60;0.60;;;;;;;15.46;56.48;99348.66;5015296;28;20432;-67
2021/05/20 09:30:41;;;;;;;1.10;0.60;;;;;;;15.97;56.73;99351.13;5014529;28;20025;-67
2021/05/20 09:33:15;;;;;;;0.60;0.52;;;;;;;15.60;56.38;99349.38;5015118;28;20052;-67
2021/05/20 09:35:49;;;;;;;1.70;0.80;;;;;;;15.77;56.93;99353.22;5013502;28;20029;-67
2021/05/20 09:38:20;;;;;;;1.80;0.70;;;;;;;15.87;56.48;99366.34;5015427;28;20029;-67
2021/05/20 09:40:48;;;;;;;2.10;0.60;;;;;;;15.65;57.41;99353.09;5004069;28;20032;-66
2021/05/20 09:43:35;;;;;;;1.38;0.60;;;;;;;15.53;57.84;99349.41;5014438;28;20026;-67
2021/05/20 09:46:11;;;;;;;1.05;0.60;;;;;;;15.49;57.13;99349.03;5014765;28;20022;-67
2021/05/20 09:48:39;;;;;;;1.35;0.60;;;;;;;15.07;57.32;99339.69;5013615;28;20029;-67
2021/05/20 09:51:07;;;;;;;1.55;0.55;;;;;;;14.92;56.71;99341.88;5014231;28;20479;-68
2021/05/20 09:53:44;;;;;;;1.42;0.63;;;;;;;14.68;58.72;99358.75;5012603;28;20045;-71
2021/05/20 09:56:10;;;;;;;3.33;0.60;;;;;;;14.47;58.53;99345.41;5013817;28;20034;-70
2021/05/20 09:58:36;;;;;;;1.27;0.60;;;;;;;14.22;59.99;99350.72;5012859;28;20033;-70
2021/05/20 10:01:03;;;;;;;1.80;0.80;;;;;;;14.20;59.63;99345.50;5006499;28;20453;-69
2021/05/20 10:03:29;;;;;;;0.55;0.52;;;;;;;13.97;61.04;99345.97;5013913;28;20026;-69
2021/05/20 10:05:59;;;;;;;2.15;0.63;;;;;;;14.05;61.12;99352.22;4993940;28;20520;-69
2021/05/20 10:08:26;;;;;;;0.50;0.50;;;;;;;13.87;61.54;99350.16;5014316;28;20079;-68
2021/05/20 10:10:53;;;;;;;2.47;0.63;;;;;;;14.48;60.62;99338.91;5013699;28;20038;-71
2021/05/20 10:13:21;;;;;;;1.00;0.80;;;;;;;14.96;58.43;99337.63;5014733;28;20501;-74
2021/05/20 10:15:47;;;;;;;1.77;1.25;;;;;;;15.20;57.51;99336.88;5008203;28;20232;-77
2021/05/20 10:18:25;;;;;;;0.80;0.57;;;;;;;15.92;56.64;99329.16;5013201;28;20029;-75
2021/05/20 10:20:54;;;;;;;1.55;0.60;;;;;;;17.15;53.04;99335.44;5013658;28;20037;-71
2021/05/20 10:23:22;;;;;;;3.53;0.57;;;;;;;17.92;50.15;99315.44;4999860;28;20127;-77
2021/05/20 10:25:49;;;;;;;2.78;0.60;;;;;;;19.91;46.46;99321.19;5015772;28;20065;-75
2021/05/20 10:28:16;;;;;;;0.85;0.40;;;;;;;20.99;44.28;99315.19;5013177;28;20026;-75
2021/05/20 10:30:45;;;;;;;0.88;0.50;;;;;;;22.99;40.83;99300.00;5007788;28;20080;-73
2021/05/20 10:33:11;;;;;;;0.80;0.40;;;;;;;24.59;37.70;99303.19;5013863;28;20060;-72
2021/05/20 10:35:41;;;;;;;1.08;0.40;;;;;;;26.17;36.21;99283.72;5014850;28;20044;-74
2021/05/20 10:38:08;;;;;;;1.58;0.50;;;;;;;26.69;35.87;99290.34;5012684;28;20383;-78
2021/05/20 10:40:34;;;;;;;1.38;0.30;;;;;;;28.48;32.61;99292.13;5013519;28;20049;-79
2021/05/20 10:43:08;;;;;;;0.95;0.32;;;;;;;25.62;36.32;99283.97;5014395;28;20056;-75
2021/05/20 10:45:36;;;;;;;1.35;0.40;;;;;;;23.44;39.69;99288.19;5014891;28;20113;-68
2021/05/20 10:48:04;;;;;;;1.08;0.60;;;;;;;21.91;41.34;99305.00;5020573;28;20111;-68
2021/05/20 10:50:55;;;;;;;0.70;0.40;;;;;;;20.13;44.49;99302.03;5013820;28;20065;-75
2021/05/20 10:53:39;;;;;;;0.45;0.40;;;;;;;19.05;47.64;99303.03;5025443;28;20426;-72
2021/05/20 10:56:09;;;;;;;0.40;0.40;;;;;;;18.82;49.04;99297.66;4998025;28;20399;-69
2021/05/20 10:58:36;;;;;;;1.35;0.43;;;;;;;18.78;48.85;99288.25;5010591;28;20113;-71
2021/05/20 11:01:05;;;;;;;0.35;0.35;;;;;;;19.96;47.14;99287.50;5012984;28;20105;-70
2021/05/20 11:03:46;;;;;;;0.30;0.30;;;;;;;23.19;40.75;99284.31;5013672;28;20029;-69
2021/05/20 11:06:16;;;;;;;0.90;0.40;;;;;;;23.57;38.40;99282.09;4997359;28;20028;-69
2021/05/20 11:08:41;;;;;;;1.98;0.43;;;;;;;23.30;36.71;99287.91;5012377;28;20495;-69
2021/05/20 11:11:20;;;;;;;0.27;0.23;;;;;;;25.55;36.53;99267.69;5011307;28;20057;-72
2021/05/20 11:13:45;;;;;;;2.30;0.30;;;;;;;26.75;33.05;99269.72;5008043;28;20288;-71
2021/05/20 11:16:16;;;;;;;0.52;0.20;;;;;;;26.33;32.48;99268.59;4997539;28;20021;-73
2021/05/20 11:18:43;;;;;;;0.93;0.20;;;;;;;28.26;32.76;99251.91;5012319;28;20105;-73
2021/05/20 11:21:08;;;;;;;0.20;0.10;;;;;;;30.19;29.56;99239.19;5011596;28;20097;-72
2021/05/20 11:23:36;;;;;;;0.43;0.10;;;;;;;30.58;27.97;99237.53;5012984;28;20113;-70
2021/05/20 11:26:04;;;;;;;0.40;0.20;;;;;;;30.74;28.07;99238.69;5015220;28;20116;-73
2021/05/20 11:28:37;;;;;;;0.25;0.20;;;;;;;28.18;29.52;99247.06;5018104;28;20028;-74
2021/05/20 11:31:03;;;;;;;0.52;0.10;;;;;;;28.47;30.85;99232.84;5020381;28;20029;-72
2021/05/20 11:33:33;;;;;;;0.70;0.25;;;;;;;27.42;31.55;99227.06;5016716;28;20034;-73
2021/05/20 11:36:11;;;;;;;1.40;0.20;;;;;;;27.44;32.57;99224.78;5019162;28;20038;-71
2021/05/20 11:38:37;;;;;;;0.70;0.30;;;;;;;25.37;35.12;99221.31;4995416;28;20026;-71
2021/05/20 11:41:13;;;;;;;0.22;0.20;;;;;;;24.03;36.50;99226.78;5012680;28;20172;-75